Observations for Trim Market St
| Time | AQI | Temp °C | Hum % | Pres Pa | CO μg/m³ | H₂S μg/m³ | NO μg/m³ | NO₂ μg/m³ | O₃ μg/m³ | SO₂ μg/m³ | PM1 μg/m³ | PM2.5 μg/m³ | PM10 μg/m³ |
|---|---|---|---|---|---|---|---|---|---|---|---|---|---|
| Monday 17 August 2026 | |||||||||||||
| 18:45 | 2 | 23.5 | 57 | 57,070 | 0 | 6.29 | 1.01 | 23.69 | 90.48 | 0 | 0.71 | 3.14 | 4.72 |
| 18:43 | 2 | 23.5 | 57 | 56,709 | 0 | 0.4 | 1.06 | 14.46 | 84.6 | 0 | 0 | 2.15 | 2.6 |
| 18:42 | 2 | 23.5 | 57 | 56,600 | 0 | 0 | 1.12 | 13.18 | 82.68 | 0 | 0.71 | 2.67 | 4 |
| 18:39 | 2 | 23.6 | 56 | 56,391 | 0 | 0 | 1.29 | 13.61 | 85.22 | 0 | 1.43 | 4.2 | 5.41 |
| 18:38 | 2 | 23.7 | 56 | 56,333 | 0 | 0 | 1.54 | 12.92 | 81.71 | 0 | 1.43 | 3.19 | 6.11 |
| 18:37 | 2 | 23.7 | 56 | 56,287 | 0 | 0 | 1.47 | 13.26 | 87.63 | 0 | 0.71 | 3.2 | 3.98 |
| 18:36 | 2 | 23.7 | 56 | 56,220 | 0 | 0 | 1.73 | 14.05 | 81.49 | 0 | 0.71 | 2.7 | 3.27 |
| 18:34 | 2 | 23.8 | 56 | 56,094 | 0 | 0 | 1.88 | 13.06 | 85.55 | 0 | 0 | 2.71 | 3.26 |
| 18:31 | 2 | 23.8 | 56 | 55,994 | 0.08 | 0 | 1.38 | 13.29 | 84.62 | 0 | 0.71 | 2.72 | 3.97 |
| 18:29 | 2 | 23.8 | 56 | 55,932 | 0 | 0 | 1.3 | 12.97 | 83.42 | 0 | 0.71 | 3.23 | 4.68 |
| 18:27 | 2 | 23.9 | 55 | 55,887 | 0.05 | 0 | 1.3 | 13.3 | 80.14 | 0 | 0 | 2.73 | 3.24 |
| 18:26 | 2 | 23.9 | 55 | 55,864 | 0 | 0 | 1.37 | 12.89 | 80.87 | 0 | 0.71 | 2.73 | 3.24 |
| 18:17 | 2 | 24 | 55 | 55,952 | 0 | 0 | 1.37 | 12.95 | 80.45 | 0 | 0.71 | 2.74 | 4.67 |
| 18:16 | 2 | 24 | 55 | 56,001 | 0 | 0 | 1.38 | 12.91 | 81.19 | 0 | 0.71 | 3.25 | 3.95 |
| 18:15 | 2 | 24 | 55 | 56,063 | 0 | 0 | 1.44 | 12.72 | 78.54 | 0 | 0.71 | 3.25 | 4.66 |
| 18:14 | 2 | 24.1 | 55 | 56,141 | 0 | 0 | 1.5 | 13.08 | 80.34 | 0 | 0.71 | 2.24 | 3.95 |
| 18:13 | 2 | 24.1 | 55 | 56,218 | 0 | 0 | 1.5 | 12.92 | 77.49 | 0 | 0.71 | 3.26 | 3.95 |
| 18:12 | 2 | 24.1 | 55 | 56,287 | 0 | 0 | 1.37 | 14.54 | 82.7 | 0 | 0 | 2.25 | 2.51 |
| 18:11 | 2 | 24.1 | 55 | 56,310 | 0 | 0 | 1.49 | 14 | 81.37 | 0 | 0 | 2.25 | 2.5 |
| 18:10 | 2 | 24.1 | 54 | 56,376 | 0 | 0 | 2.29 | 13.48 | 83.96 | 0 | 0 | 2.26 | 2.5 |